Share

Brownfield, TX (79316)

WT_Meso Brownfield 2S (MBWST2) Elev 3313 ft | 33.15 °N, 102.27 °W | Change Station

Current weather conditions updated 39 minutes ago

Clear
Clear
55 °F
Feels Like 55 °F
N
9
Wind Variable Wind from SW
Gusts 11.0 mph
Sunrise 7:13 AM
Sunset 8:23 PM
Moon Waning Gibbous

Today is forecast to be Much Warmer than yesterday. Morning thunderstorms.

Pressure 30.07 in
Visibility 3.0 miles
Clouds Clear
Dew Point 52 °F
Humidity 95%
Rainfall -999.00 in
Snow Depth Not available.
UV 0 out of 16
Pollen 7.10 out of 12
Air Quality Not available.
Flu Activity Local Activity
METAR KGNC 200855Z AUTO 23003KT 3SM BR CLR 13/12 A3007 RMK AO2 T01250120

More Conditions Fewer Conditions

Pressure 30.07 in
Visibility 3.0 miles
Clouds Clear
Dew Point 52 °F
Humidity 95%
Rainfall -999.00 in
Snow Depth Not available.
UV 0 out of 16
Pollen 7.10 out of 12
Air Quality Not available.
Flu Activity Local Activity
METAR KGNC 200855Z AUTO 23003KT 3SM BR CLR 13/12 A3007 RMK AO2 T01250120

More Conditions Fewer Conditions

10-Day Weather Forecast

Almanac

Astronomy

Apr. 20, 2014 Rise Set
Actual Time 7:13 AM CDT 8:23 PM CDT
Civil Twilight 6:47 AM CDT 8:49 PM CDT
Nautical Twilight 6:16 AM CDT 9:19 PM CDT
Astronomical Twilight 5:45 AM CDT 9:51 PM CDT
Moon 12:58 AM CDT 11:41 AM CDT
Length of Visible Light 14h 01m
Length of Day
13h 10m
Tomorrow will be 1m 54s longer.
Waning Gibbous, 72% of the Moon is Illuminated
Today
Waning Gibbous
Apr 22
Last Quarter
Apr 29
New
May 6
First Quarter
May 14
Full

Today's Extremes

State Highs State Lows

Community

  • Sunny day at the coast-Cape Arago Lighthouse
    Sunny day at the coast-Cape Arago Lighthouse
  • Cherry Blossoms
    Cherry Blossoms
  • White-Crowned Sparrow
    White-Crowned Sparrow
  • New Day
    New Day
  • Happy Easter!
    Happy Easter!

WunderPhotos

Upload Photos

1,703,122 photos uploaded!

WunderBlogs® & News

Nearby

Snow Depth

Station Depth Elevation
No new snow has been reported.

Coastal Water Temperatures

Place Temperature
No Stations Reporting

Earthquake Activity

City Distance Mag. Time & Date
No recent earthquake activity has been reported nearby.
Minimum magnitude displayed is 2.5.

Nearby Weather Stations

Station Location Temp. Dew Point Humidity Wind Precip. Elev Updated Type
WT_Meso Brownfield 2S, Brownfield, TX 55 °F 52 °F 95% SW  at  9 mph 0.00 in / hr 3313 ft 3:25 AM CDT MADIS
WT_Meso Wolfforth 6 mi SW, Ropesville, TX 55 °F 54 °F 97% SSW  at  8 mph 0.00 in / hr 3307 ft 3:25 AM CDT MADIS
WT_Meso Seagraves 1SW, Seagraves, TX 54 °F 53 °F 98% SW  at  7 mph 0.00 in / hr 3359 ft 3:25 AM CDT MADIS
WT_Meso Sundown 8SW, Sundown, TX 53 °F 51 °F 97% SSW  at  10 mph 0.00 in / hr 3625 ft 3:25 AM CDT MADIS
WT_Meso Levelland 4S, Levelland, TX 53 °F 51 °F 94% SW  at  8 mph 0.00 in / hr 3496 ft 3:25 AM CDT MADIS

Show More Stations Show Fewer Stations

What do you think?

We're not finished. Please let us know what you like, what you don't like, and what you are still missing.